D07

Faith Municipal Airport

Faith, South Dakota, USA
METAR KD07 181356Z AUTO 06015KT M12/M13 A3000 RMK AO1 SLP209 P0001 T11221133
Observed Flight Rules
Jan-18 @ 13:56 UTC (29 minutes ago)
Wind
60° at 15 knots
Temperatures Readings Precipitation
Current -12°C / 10°F
Dewpoint -13°C / 9°F
Humidity 92%
Altimeter 30" Hg
Pressure 1020.9 hPa
Elevation 784
Current Rain 0.01
METAR KD07 181356Z AUTO 06015KT M12/M13 A3000 RMK AO1 SLP209 P0001 T11221133
Observed Flight Rules
Jan-18 @ 13:56 UTC
(29 minutes ago)
Wind
60° at 15 knots
Temperature Dewpoint
-12°C / 10°F -13°C / 9°F
Humidity Altimeter Pressure
92% 30" Hg 1020.9 hPa
Current Rain
0.01